Gooderham, Canada
Current Conditions -  °F | °C
As of 5:00 AM on Tuesday 27 Jan 2015 (Local Time) from CYQA Reporting Station
Overcast Overcast  
Wind Chill:   Ceiling: 10000
Heat Index:   Visibility: 9mi
Dew Point: -6°   Wind: 3mph
Humidity: 66%   Direction: 20°NNE
Pressure: 30.01"   Gusts: NA
Location:  44.9°N, 78.38°W
Report Text: CYQA 271000Z AUTO 02003KT 300V060 9SM OVC100 M16/M21 A3001 RMK SLP186
Loading
Personal Weather Stations






























Interactive Weather Map New forecast layout! Learn more

10-Day Weather Forecast

Advertisements
Track Severe Weather on mobile